sensor_id;sensor_type;location;lat;lon;timestamp;temperature;humidity
11320;DHT22;5715;48.234;14.320;2023-04-06T00:01:41;-0.50;99.90
11320;DHT22;5715;48.234;14.320;2023-04-06T00:04:28;-0.50;99.90
11320;DHT22;5715;48.234;14.320;2023-04-06T00:07:16;-0.50;99.90
11320;DHT22;5715;48.234;14.320;2023-04-06T00:10:04;-0.60;99.90
11320;DHT22;5715;48.234;14.320;2023-04-06T00:12:53;-0.60;99.90
11320;DHT22;5715;48.234;14.320;2023-04-06T00:15:43;-0.60;99.90
11320;DHT22;5715;48.234;14.320;2023-04-06T00:18:31;-0.60;99.90
11320;DHT22;5715;48.234;14.320;2023-04-06T00:21:19;-0.60;99.90
11320;DHT22;5715;48.234;14.320;2023-04-06T00:24:07;-0.70;99.90
11320;DHT22;5715;48.234;14.320;2023-04-06T00:26:54;-0.80;99.90
11320;DHT22;5715;48.234;14.320;2023-04-06T00:29:43;-0.90;99.90
11320;DHT22;5715;48.234;14.320;2023-04-06T00:32:32;-1.00;99.90
11320;DHT22;5715;48.234;14.320;2023-04-06T00:35:20;-1.00;99.90
11320;DHT22;5715;48.234;14.320;2023-04-06T00:38:07;-1.10;99.90
11320;DHT22;5715;48.234;14.320;2023-04-06T00:40:55;-1.20;99.90
11320;DHT22;5715;48.234;14.320;2023-04-06T00:43:42;-1.30;99.90
11320;DHT22;5715;48.234;14.320;2023-04-06T00:46:30;-1.40;99.90
11320;DHT22;5715;48.234;14.320;2023-04-06T00:49:18;-1.40;99.90
11320;DHT22;5715;48.234;14.320;2023-04-06T00:52:05;-1.50;99.90
11320;DHT22;5715;48.234;14.320;2023-04-06T00:54:53;-1.50;99.90
11320;DHT22;5715;48.234;14.320;2023-04-06T00:57:41;-1.40;99.90
11320;DHT22;5715;48.234;14.320;2023-04-06T01:00:29;-1.50;99.90
11320;DHT22;5715;48.234;14.320;2023-04-06T01:03:17;-1.60;99.90
11320;DHT22;5715;48.234;14.320;2023-04-06T01:06:05;-1.70;99.90
11320;DHT22;5715;48.234;14.320;2023-04-06T01:08:53;-1.70;99.90
11320;DHT22;5715;48.234;14.320;2023-04-06T01:11:41;-1.80;99.90
11320;DHT22;5715;48.234;14.320;2023-04-06T01:14:29;-1.80;99.90
11320;DHT22;5715;48.234;14.320;2023-04-06T01:17:16;-1.90;99.90
11320;DHT22;5715;48.234;14.320;2023-04-06T01:20:05;-1.90;99.90
11320;DHT22;5715;48.234;14.320;2023-04-06T01:22:53;-1.90;99.90
11320;DHT22;5715;48.234;14.320;2023-04-06T01:25:41;-2.00;99.90
11320;DHT22;5715;48.234;14.320;2023-04-06T01:28:29;-2.00;99.90
11320;DHT22;5715;48.234;14.320;2023-04-06T01:31:17;-2.10;99.90
11320;DHT22;5715;48.234;14.320;2023-04-06T01:34:05;-2.00;99.90
11320;DHT22;5715;48.234;14.320;2023-04-06T01:36:53;-2.10;99.90
11320;DHT22;5715;48.234;14.320;2023-04-06T01:39:43;-2.10;99.90
11320;DHT22;5715;48.234;14.320;2023-04-06T01:42:31;-2.10;99.90
11320;DHT22;5715;48.234;14.320;2023-04-06T01:45:19;-2.10;99.90
11320;DHT22;5715;48.234;14.320;2023-04-06T01:48:07;-2.20;99.90
11320;DHT22;5715;48.234;14.320;2023-04-06T01:50:58;-2.20;99.90
11320;DHT22;5715;48.234;14.320;2023-04-06T01:53:48;-2.20;99.90
11320;DHT22;5715;48.234;14.320;2023-04-06T01:56:36;-2.20;99.90
11320;DHT22;5715;48.234;14.320;2023-04-06T01:59:24;-2.30;99.90
11320;DHT22;5715;48.234;14.320;2023-04-06T02:02:12;-2.30;99.90
11320;DHT22;5715;48.234;14.320;2023-04-06T02:05:00;-2.30;99.90
11320;DHT22;5715;48.234;14.320;2023-04-06T02:07:47;-2.30;99.90
11320;DHT22;5715;48.234;14.320;2023-04-06T02:10:36;-2.30;99.90
11320;DHT22;5715;48.234;14.320;2023-04-06T02:13:23;-2.40;99.90
11320;DHT22;5715;48.234;14.320;2023-04-06T02:16:11;-2.40;99.90
11320;DHT22;5715;48.234;14.320;2023-04-06T02:18:59;-2.40;99.90
11320;DHT22;5715;48.234;14.320;2023-04-06T02:21:46;-2.40;99.90
11320;DHT22;5715;48.234;14.320;2023-04-06T02:24:34;-2.40;99.90
11320;DHT22;5715;48.234;14.320;2023-04-06T02:27:22;-2.50;99.90
11320;DHT22;5715;48.234;14.320;2023-04-06T02:30:10;-2.50;99.90
11320;DHT22;5715;48.234;14.320;2023-04-06T02:33:02;-2.60;99.90
11320;DHT22;5715;48.234;14.320;2023-04-06T02:35:50;-2.60;99.90
11320;DHT22;5715;48.234;14.320;2023-04-06T02:38:37;-2.70;99.90
11320;DHT22;5715;48.234;14.320;2023-04-06T02:41:25;-2.70;99.90
11320;DHT22;5715;48.234;14.320;2023-04-06T02:44:13;-2.70;99.90
11320;DHT22;5715;48.234;14.320;2023-04-06T02:47:01;-2.70;99.90
11320;DHT22;5715;48.234;14.320;2023-04-06T02:49:48;-2.70;99.90
11320;DHT22;5715;48.234;14.320;2023-04-06T02:52:36;-2.70;99.90
11320;DHT22;5715;48.234;14.320;2023-04-06T02:55:24;-2.70;99.90
11320;DHT22;5715;48.234;14.320;2023-04-06T02:58:11;-2.70;99.90
11320;DHT22;5715;48.234;14.320;2023-04-06T03:00:59;-2.70;99.90
11320;DHT22;5715;48.234;14.320;2023-04-06T03:03:47;-2.70;99.90
11320;DHT22;5715;48.234;14.320;2023-04-06T03:06:35;-2.70;99.90
11320;DHT22;5715;48.234;14.320;2023-04-06T03:09:22;-2.70;99.90
11320;DHT22;5715;48.234;14.320;2023-04-06T03:12:10;-2.70;99.90
11320;DHT22;5715;48.234;14.320;2023-04-06T03:14:58;-2.70;99.90
11320;DHT22;5715;48.234;14.320;2023-04-06T03:17:45;-2.70;99.90
11320;DHT22;5715;48.234;14.320;2023-04-06T03:20:33;-2.80;99.90
11320;DHT22;5715;48.234;14.320;2023-04-06T03:23:21;-2.80;99.90
11320;DHT22;5715;48.234;14.320;2023-04-06T03:26:10;-2.80;99.90
11320;DHT22;5715;48.234;14.320;2023-04-06T03:28:57;-2.90;99.90
11320;DHT22;5715;48.234;14.320;2023-04-06T03:31:45;-2.90;99.90
11320;DHT22;5715;48.234;14.320;2023-04-06T03:34:33;-2.90;99.90
11320;DHT22;5715;48.234;14.320;2023-04-06T03:37:21;-2.90;99.90
11320;DHT22;5715;48.234;14.320;2023-04-06T03:40:09;-3.00;99.90
11320;DHT22;5715;48.234;14.320;2023-04-06T03:42:57;-3.00;99.90
11320;DHT22;5715;48.234;14.320;2023-04-06T03:45:45;-3.00;99.90
11320;DHT22;5715;48.234;14.320;2023-04-06T03:48:32;-3.00;99.90
11320;DHT22;5715;48.234;14.320;2023-04-06T03:51:20;-3.00;99.90
11320;DHT22;5715;48.234;14.320;2023-04-06T03:54:07;-3.00;99.90
11320;DHT22;5715;48.234;14.320;2023-04-06T03:56:55;-3.00;99.90
11320;DHT22;5715;48.234;14.320;2023-04-06T03:59:43;-3.00;99.90
11320;DHT22;5715;48.234;14.320;2023-04-06T04:02:31;-3.00;99.90
11320;DHT22;5715;48.234;14.320;2023-04-06T04:05:18;-3.00;99.90
11320;DHT22;5715;48.234;14.320;2023-04-06T04:08:06;-3.10;99.90
11320;DHT22;5715;48.234;14.320;2023-04-06T04:10:54;-3.10;99.90
11320;DHT22;5715;48.234;14.320;2023-04-06T04:13:41;-3.20;99.90
11320;DHT22;5715;48.234;14.320;2023-04-06T04:16:29;-3.20;99.90
11320;DHT22;5715;48.234;14.320;2023-04-06T04:19:17;-3.20;99.90
11320;DHT22;5715;48.234;14.320;2023-04-06T04:22:04;-3.20;99.90
11320;DHT22;5715;48.234;14.320;2023-04-06T04:24:52;-3.20;99.90
11320;DHT22;5715;48.234;14.320;2023-04-06T04:27:40;-3.30;99.90
11320;DHT22;5715;48.234;14.320;2023-04-06T04:30:27;-3.30;99.90
11320;DHT22;5715;48.234;14.320;2023-04-06T04:33:15;-3.30;99.90
11320;DHT22;5715;48.234;14.320;2023-04-06T04:36:03;-3.30;99.90
11320;DHT22;5715;48.234;14.320;2023-04-06T04:38:51;-3.50;99.90
11320;DHT22;5715;48.234;14.320;2023-04-06T04:41:39;-3.20;99.90
11320;DHT22;5715;48.234;14.320;2023-04-06T04:44:27;-3.20;99.90
11320;DHT22;5715;48.234;14.320;2023-04-06T04:47:14;-3.20;99.90
11320;DHT22;5715;48.234;14.320;2023-04-06T04:50:02;-3.10;99.90
11320;DHT22;5715;48.234;14.320;2023-04-06T04:52:49;-3.10;99.90
11320;DHT22;5715;48.234;14.320;2023-04-06T04:55:37;-3.00;99.90
11320;DHT22;5715;48.234;14.320;2023-04-06T04:58:25;-2.90;99.90
11320;DHT22;5715;48.234;14.320;2023-04-06T05:01:12;-2.80;99.90
11320;DHT22;5715;48.234;14.320;2023-04-06T05:04:00;-2.70;99.90
11320;DHT22;5715;48.234;14.320;2023-04-06T05:06:47;-2.60;99.90
11320;DHT22;5715;48.234;14.320;2023-04-06T05:09:35;-2.40;99.90
11320;DHT22;5715;48.234;14.320;2023-04-06T05:12:23;-2.20;99.90
11320;DHT22;5715;48.234;14.320;2023-04-06T05:15:11;-2.00;99.90
11320;DHT22;5715;48.234;14.320;2023-04-06T05:17:58;-1.80;99.90
11320;DHT22;5715;48.234;14.320;2023-04-06T05:20:47;-1.60;99.90
11320;DHT22;5715;48.234;14.320;2023-04-06T05:23:34;-1.20;99.90
11320;DHT22;5715;48.234;14.320;2023-04-06T05:26:22;-1.00;99.90
11320;DHT22;5715;48.234;14.320;2023-04-06T05:29:10;-0.60;99.90
11320;DHT22;5715;48.234;14.320;2023-04-06T05:31:58;-0.10;99.90
11320;DHT22;5715;48.234;14.320;2023-04-06T05:34:46;0.40;99.90
11320;DHT22;5715;48.234;14.320;2023-04-06T05:37:33;1.00;99.90
11320;DHT22;5715;48.234;14.320;2023-04-06T05:40:21;1.30;99.90
11320;DHT22;5715;48.234;14.320;2023-04-06T05:43:09;1.60;99.90
11320;DHT22;5715;48.234;14.320;2023-04-06T05:45:56;1.70;99.90
11320;DHT22;5715;48.234;14.320;2023-04-06T05:48:44;1.50;99.90
11320;DHT22;5715;48.234;14.320;2023-04-06T05:51:32;1.30;99.90
11320;DHT22;5715;48.234;14.320;2023-04-06T05:54:20;1.20;99.90
11320;DHT22;5715;48.234;14.320;2023-04-06T05:57:07;1.10;99.90
11320;DHT22;5715;48.234;14.320;2023-04-06T05:59:55;1.00;99.90
11320;DHT22;5715;48.234;14.320;2023-04-06T06:02:42;1.00;99.90
11320;DHT22;5715;48.234;14.320;2023-04-06T06:05:30;0.80;99.90
11320;DHT22;5715;48.234;14.320;2023-04-06T06:08:20;0.80;99.90
11320;DHT22;5715;48.234;14.320;2023-04-06T06:11:08;0.90;99.90
11320;DHT22;5715;48.234;14.320;2023-04-06T06:13:56;0.90;99.90
11320;DHT22;5715;48.234;14.320;2023-04-06T06:16:43;1.00;99.90
11320;DHT22;5715;48.234;14.320;2023-04-06T06:19:31;1.10;99.90
11320;DHT22;5715;48.234;14.320;2023-04-06T06:22:19;1.10;99.90
11320;DHT22;5715;48.234;14.320;2023-04-06T06:25:07;1.10;99.90
11320;DHT22;5715;48.234;14.320;2023-04-06T06:27:54;1.10;99.90
11320;DHT22;5715;48.234;14.320;2023-04-06T06:30:42;1.10;99.90
11320;DHT22;5715;48.234;14.320;2023-04-06T06:33:29;1.30;99.90
11320;DHT22;5715;48.234;14.320;2023-04-06T06:36:17;1.30;99.90
11320;DHT22;5715;48.234;14.320;2023-04-06T06:39:05;1.30;99.90
11320;DHT22;5715;48.234;14.320;2023-04-06T06:41:53;1.50;99.90
11320;DHT22;5715;48.234;14.320;2023-04-06T06:44:42;1.60;99.90
11320;DHT22;5715;48.234;14.320;2023-04-06T06:47:29;1.70;99.90
11320;DHT22;5715;48.234;14.320;2023-04-06T06:50:17;1.70;99.90
11320;DHT22;5715;48.234;14.320;2023-04-06T06:53:05;1.60;99.90
11320;DHT22;5715;48.234;14.320;2023-04-06T06:55:53;1.90;99.90
11320;DHT22;5715;48.234;14.320;2023-04-06T06:58:41;2.00;99.90
11320;DHT22;5715;48.234;14.320;2023-04-06T07:01:28;2.00;99.90
11320;DHT22;5715;48.234;14.320;2023-04-06T07:04:16;2.20;99.90
11320;DHT22;5715;48.234;14.320;2023-04-06T07:07:04;2.30;99.90
11320;DHT22;5715;48.234;14.320;2023-04-06T07:09:51;2.50;99.90
11320;DHT22;5715;48.234;14.320;2023-04-06T07:12:39;2.50;99.90
11320;DHT22;5715;48.234;14.320;2023-04-06T07:15:26;2.60;99.90
11320;DHT22;5715;48.234;14.320;2023-04-06T07:18:14;2.80;99.90
11320;DHT22;5715;48.234;14.320;2023-04-06T07:21:02;2.80;99.90
11320;DHT22;5715;48.234;14.320;2023-04-06T07:23:50;2.90;99.90
11320;DHT22;5715;48.234;14.320;2023-04-06T07:26:39;3.00;99.90
11320;DHT22;5715;48.234;14.320;2023-04-06T07:29:27;3.00;99.90
11320;DHT22;5715;48.234;14.320;2023-04-06T07:32:14;3.10;99.90
11320;DHT22;5715;48.234;14.320;2023-04-06T07:35:03;3.30;99.90
11320;DHT22;5715;48.234;14.320;2023-04-06T07:37:51;3.40;99.90
11320;DHT22;5715;48.234;14.320;2023-04-06T07:40:39;3.30;99.90
11320;DHT22;5715;48.234;14.320;2023-04-06T07:43:26;3.50;99.90
11320;DHT22;5715;48.234;14.320;2023-04-06T07:46:14;3.60;99.90
11320;DHT22;5715;48.234;14.320;2023-04-06T07:49:02;3.80;99.90
11320;DHT22;5715;48.234;14.320;2023-04-06T07:51:49;3.90;99.90
11320;DHT22;5715;48.234;14.320;2023-04-06T07:54:37;4.10;99.90
11320;DHT22;5715;48.234;14.320;2023-04-06T07:57:25;4.20;99.90
11320;DHT22;5715;48.234;14.320;2023-04-06T08:00:13;4.30;99.90
11320;DHT22;5715;48.234;14.320;2023-04-06T08:03:01;4.20;99.90
11320;DHT22;5715;48.234;14.320;2023-04-06T08:05:49;4.40;99.90
11320;DHT22;5715;48.234;14.320;2023-04-06T08:08:36;4.60;99.90
11320;DHT22;5715;48.234;14.320;2023-04-06T08:11:24;4.70;99.90
11320;DHT22;5715;48.234;14.320;2023-04-06T08:14:14;5.00;99.90
11320;DHT22;5715;48.234;14.320;2023-04-06T08:17:02;5.20;99.90
11320;DHT22;5715;48.234;14.320;2023-04-06T08:19:52;5.30;99.90
11320;DHT22;5715;48.234;14.320;2023-04-06T08:22:40;5.30;99.90
11320;DHT22;5715;48.234;14.320;2023-04-06T08:25:27;5.40;99.90
11320;DHT22;5715;48.234;14.320;2023-04-06T08:28:15;5.30;99.90
11320;DHT22;5715;48.234;14.320;2023-04-06T08:31:06;5.40;99.90
11320;DHT22;5715;48.234;14.320;2023-04-06T08:33:56;5.50;99.90
11320;DHT22;5715;48.234;14.320;2023-04-06T08:36:44;5.80;99.90
11320;DHT22;5715;48.234;14.320;2023-04-06T08:39:33;6.00;99.90
11320;DHT22;5715;48.234;14.320;2023-04-06T08:42:22;6.10;99.90
11320;DHT22;5715;48.234;14.320;2023-04-06T08:45:14;6.20;99.90
11320;DHT22;5715;48.234;14.320;2023-04-06T08:48:03;6.10;99.90
11320;DHT22;5715;48.234;14.320;2023-04-06T08:50:54;6.10;99.90
11320;DHT22;5715;48.234;14.320;2023-04-06T08:53:42;6.20;99.90
11320;DHT22;5715;48.234;14.320;2023-04-06T08:56:30;6.40;99.90
11320;DHT22;5715;48.234;14.320;2023-04-06T08:59:18;6.50;99.90
11320;DHT22;5715;48.234;14.320;2023-04-06T09:02:12;6.50;99.90
11320;DHT22;5715;48.234;14.320;2023-04-06T09:05:05;6.40;99.90
11320;DHT22;5715;48.234;14.320;2023-04-06T09:07:55;6.50;99.90
11320;DHT22;5715;48.234;14.320;2023-04-06T09:10:43;6.60;99.90
11320;DHT22;5715;48.234;14.320;2023-04-06T09:13:31;6.80;99.90
11320;DHT22;5715;48.234;14.320;2023-04-06T09:16:39;6.70;99.90
11320;DHT22;5715;48.234;14.320;2023-04-06T09:19:28;6.60;99.90
11320;DHT22;5715;48.234;14.320;2023-04-06T09:22:17;6.70;99.90
11320;DHT22;5715;48.234;14.320;2023-04-06T09:25:07;6.70;99.90
11320;DHT22;5715;48.234;14.320;2023-04-06T09:28:03;7.00;99.90
11320;DHT22;5715;48.234;14.320;2023-04-06T09:30:51;7.20;99.90
11320;DHT22;5715;48.234;14.320;2023-04-06T09:33:41;7.40;99.90
11320;DHT22;5715;48.234;14.320;2023-04-06T09:36:36;7.40;99.90
11320;DHT22;5715;48.234;14.320;2023-04-06T09:39:27;7.70;99.90
11320;DHT22;5715;48.234;14.320;2023-04-06T09:42:24;7.70;99.90
11320;DHT22;5715;48.234;14.320;2023-04-06T09:45:13;7.90;99.90
11320;DHT22;5715;48.234;14.320;2023-04-06T09:48:01;8.20;99.90
11320;DHT22;5715;48.234;14.320;2023-04-06T09:50:54;8.50;99.90
11320;DHT22;5715;48.234;14.320;2023-04-06T09:53:51;8.70;99.90
11320;DHT22;5715;48.234;14.320;2023-04-06T10:06:28;9.20;99.90
11320;DHT22;5715;48.234;14.320;2023-04-06T10:09:24;9.20;99.90
11320;DHT22;5715;48.234;14.320;2023-04-06T10:12:16;9.40;99.90
11320;DHT22;5715;48.234;14.320;2023-04-06T10:15:04;9.10;99.90
11320;DHT22;5715;48.234;14.320;2023-04-06T10:17:52;9.20;99.90
11320;DHT22;5715;48.234;14.320;2023-04-06T10:20:51;8.90;99.90
11320;DHT22;5715;48.234;14.320;2023-04-06T10:23:47;9.00;99.90
11320;DHT22;5715;48.234;14.320;2023-04-06T10:26:36;9.30;99.90
11320;DHT22;5715;48.234;14.320;2023-04-06T10:29:24;9.40;99.90
11320;DHT22;5715;48.234;14.320;2023-04-06T10:32:11;9.40;99.90
11320;DHT22;5715;48.234;14.320;2023-04-06T10:35:10;9.40;99.90
11320;DHT22;5715;48.234;14.320;2023-04-06T10:38:04;9.50;99.90
11320;DHT22;5715;48.234;14.320;2023-04-06T10:40:52;9.60;99.90
11320;DHT22;5715;48.234;14.320;2023-04-06T10:43:40;9.70;99.90
11320;DHT22;5715;48.234;14.320;2023-04-06T10:46:31;9.60;99.90
11320;DHT22;5715;48.234;14.320;2023-04-06T10:49:20;9.90;99.90
11320;DHT22;5715;48.234;14.320;2023-04-06T10:52:10;9.70;99.90
11320;DHT22;5715;48.234;14.320;2023-04-06T10:54:58;9.70;99.90
11320;DHT22;5715;48.234;14.320;2023-04-06T10:57:46;9.80;99.90
11320;DHT22;5715;48.234;14.320;2023-04-06T11:00:35;9.80;99.90
11320;DHT22;5715;48.234;14.320;2023-04-06T11:03:57;9.80;99.90
11320;DHT22;5715;48.234;14.320;2023-04-06T11:06:49;9.80;99.90
11320;DHT22;5715;48.234;14.320;2023-04-06T11:09:37;10.00;99.90
11320;DHT22;5715;48.234;14.320;2023-04-06T11:12:27;10.30;99.90
11320;DHT22;5715;48.234;14.320;2023-04-06T11:15:16;10.50;99.90
11320;DHT22;5715;48.234;14.320;2023-04-06T11:18:04;10.50;99.90
11320;DHT22;5715;48.234;14.320;2023-04-06T11:20:52;10.30;99.90
11320;DHT22;5715;48.234;14.320;2023-04-06T11:23:39;10.00;99.90
11320;DHT22;5715;48.234;14.320;2023-04-06T11:26:27;10.10;99.90
11320;DHT22;5715;48.234;14.320;2023-04-06T11:29:19;10.40;99.90
11320;DHT22;5715;48.234;14.320;2023-04-06T11:32:07;10.30;99.90
11320;DHT22;5715;48.234;14.320;2023-04-06T11:34:58;10.40;99.90
11320;DHT22;5715;48.234;14.320;2023-04-06T11:37:47;10.40;99.90
11320;DHT22;5715;48.234;14.320;2023-04-06T11:40:36;10.30;99.90
11320;DHT22;5715;48.234;14.320;2023-04-06T11:43:30;10.50;99.90
11320;DHT22;5715;48.234;14.320;2023-04-06T11:46:18;10.60;99.90
11320;DHT22;5715;48.234;14.320;2023-04-06T11:49:06;10.50;99.90
11320;DHT22;5715;48.234;14.320;2023-04-06T11:51:55;10.50;99.90
11320;DHT22;5715;48.234;14.320;2023-04-06T11:54:44;10.50;99.90
11320;DHT22;5715;48.234;14.320;2023-04-06T11:57:32;10.60;99.90
11320;DHT22;5715;48.234;14.320;2023-04-06T12:00:21;10.50;99.90
11320;DHT22;5715;48.234;14.320;2023-04-06T12:03:09;10.40;99.90
11320;DHT22;5715;48.234;14.320;2023-04-06T12:05:56;10.60;99.90
11320;DHT22;5715;48.234;14.320;2023-04-06T12:08:45;10.70;99.90
11320;DHT22;5715;48.234;14.320;2023-04-06T12:11:33;10.30;99.90
11320;DHT22;5715;48.234;14.320;2023-04-06T12:14:21;10.30;99.90
11320;DHT22;5715;48.234;14.320;2023-04-06T12:17:09;10.50;99.90
11320;DHT22;5715;48.234;14.320;2023-04-06T12:19:56;10.70;99.90
11320;DHT22;5715;48.234;14.320;2023-04-06T12:22:55;10.80;99.90
11320;DHT22;5715;48.234;14.320;2023-04-06T12:25:43;10.90;99.90
11320;DHT22;5715;48.234;14.320;2023-04-06T12:28:30;11.10;99.90
11320;DHT22;5715;48.234;14.320;2023-04-06T12:31:20;11.10;99.90
11320;DHT22;5715;48.234;14.320;2023-04-06T12:34:09;11.20;99.90
11320;DHT22;5715;48.234;14.320;2023-04-06T12:36:56;11.30;99.90
11320;DHT22;5715;48.234;14.320;2023-04-06T12:39:44;11.30;99.90
11320;DHT22;5715;48.234;14.320;2023-04-06T12:42:32;11.30;99.90
11320;DHT22;5715;48.234;14.320;2023-04-06T12:45:20;11.30;99.90
11320;DHT22;5715;48.234;14.320;2023-04-06T12:48:07;10.90;99.90
11320;DHT22;5715;48.234;14.320;2023-04-06T12:51:00;10.70;99.60
11320;DHT22;5715;48.234;14.320;2023-04-06T12:53:49;10.50;99.80
11320;DHT22;5715;48.234;14.320;2023-04-06T12:56:37;10.80;99.90
11320;DHT22;5715;48.234;14.320;2023-04-06T12:59:24;10.90;99.90
11320;DHT22;5715;48.234;14.320;2023-04-06T13:02:12;11.00;99.90
11320;DHT22;5715;48.234;14.320;2023-04-06T13:05:00;10.90;99.90
11320;DHT22;5715;48.234;14.320;2023-04-06T13:07:47;10.90;99.90
11320;DHT22;5715;48.234;14.320;2023-04-06T13:10:35;10.80;99.90
11320;DHT22;5715;48.234;14.320;2023-04-06T13:13:24;10.80;99.90
11320;DHT22;5715;48.234;14.320;2023-04-06T13:16:13;10.60;99.70
11320;DHT22;5715;48.234;14.320;2023-04-06T13:19:02;10.40;98.80
11320;DHT22;5715;48.234;14.320;2023-04-06T13:21:50;10.60;99.90
11320;DHT22;5715;48.234;14.320;2023-04-06T13:24:38;10.90;99.90
11320;DHT22;5715;48.234;14.320;2023-04-06T13:27:25;11.20;99.90
11320;DHT22;5715;48.234;14.320;2023-04-06T13:30:14;11.40;99.90
11320;DHT22;5715;48.234;14.320;2023-04-06T13:33:04;11.50;99.30
11320;DHT22;5715;48.234;14.320;2023-04-06T13:35:55;11.70;99.90
11320;DHT22;5715;48.234;14.320;2023-04-06T13:38:43;11.80;99.90
11320;DHT22;5715;48.234;14.320;2023-04-06T13:41:31;11.70;99.90
11320;DHT22;5715;48.234;14.320;2023-04-06T13:44:18;11.60;98.10
11320;DHT22;5715;48.234;14.320;2023-04-06T13:47:06;11.70;99.90
11320;DHT22;5715;48.234;14.320;2023-04-06T13:49:54;11.90;99.90
11320;DHT22;5715;48.234;14.320;2023-04-06T13:52:43;11.90;99.90
11320;DHT22;5715;48.234;14.320;2023-04-06T13:55:30;12.10;99.90
11320;DHT22;5715;48.234;14.320;2023-04-06T13:58:18;12.20;99.90
11320;DHT22;5715;48.234;14.320;2023-04-06T14:01:08;11.90;98.80
11320;DHT22;5715;48.234;14.320;2023-04-06T14:03:57;11.80;99.70
11320;DHT22;5715;48.234;14.320;2023-04-06T14:06:45;11.80;97.70
11320;DHT22;5715;48.234;14.320;2023-04-06T14:09:33;11.70;98.60
11320;DHT22;5715;48.234;14.320;2023-04-06T14:12:21;11.50;97.40
11320;DHT22;5715;48.234;14.320;2023-04-06T14:15:10;11.30;99.40
11320;DHT22;5715;48.234;14.320;2023-04-06T14:17:59;11.30;98.70
11320;DHT22;5715;48.234;14.320;2023-04-06T14:20:54;11.10;96.20
11320;DHT22;5715;48.234;14.320;2023-04-06T14:23:42;11.20;99.90
11320;DHT22;5715;48.234;14.320;2023-04-06T14:26:30;11.30;99.90
11320;DHT22;5715;48.234;14.320;2023-04-06T14:29:19;11.60;99.70
11320;DHT22;5715;48.234;14.320;2023-04-06T14:32:07;11.60;97.40
11320;DHT22;5715;48.234;14.320;2023-04-06T14:34:54;11.60;96.00
11320;DHT22;5715;48.234;14.320;2023-04-06T14:37:42;11.50;98.90
11320;DHT22;5715;48.234;14.320;2023-04-06T14:40:29;11.60;96.90
11320;DHT22;5715;48.234;14.320;2023-04-06T14:43:17;11.60;98.80
11320;DHT22;5715;48.234;14.320;2023-04-06T14:46:05;11.60;99.10
11320;DHT22;5715;48.234;14.320;2023-04-06T14:48:56;11.70;99.90
11320;DHT22;5715;48.234;14.320;2023-04-06T14:51:44;11.60;98.90
11320;DHT22;5715;48.234;14.320;2023-04-06T14:54:32;11.40;98.50
11320;DHT22;5715;48.234;14.320;2023-04-06T14:57:19;11.50;99.80
11320;DHT22;5715;48.234;14.320;2023-04-06T15:00:08;11.70;99.50
11320;DHT22;5715;48.234;14.320;2023-04-06T15:02:56;11.70;98.80
11320;DHT22;5715;48.234;14.320;2023-04-06T15:05:44;11.80;99.00
11320;DHT22;5715;48.234;14.320;2023-04-06T15:08:31;11.90;99.90
11320;DHT22;5715;48.234;14.320;2023-04-06T15:11:19;11.90;99.20
11320;DHT22;5715;48.234;14.320;2023-04-06T15:14:07;11.90;99.40
11320;DHT22;5715;48.234;14.320;2023-04-06T15:16:54;11.80;98.20
11320;DHT22;5715;48.234;14.320;2023-04-06T15:19:42;11.80;99.50
11320;DHT22;5715;48.234;14.320;2023-04-06T15:22:29;11.90;98.40
11320;DHT22;5715;48.234;14.320;2023-04-06T15:25:17;11.90;99.30
11320;DHT22;5715;48.234;14.320;2023-04-06T15:28:04;11.80;98.50
11320;DHT22;5715;48.234;14.320;2023-04-06T15:30:52;11.70;99.10
11320;DHT22;5715;48.234;14.320;2023-04-06T15:33:41;11.80;99.30
11320;DHT22;5715;48.234;14.320;2023-04-06T15:36:31;11.80;98.90
11320;DHT22;5715;48.234;14.320;2023-04-06T15:39:18;11.70;99.40
11320;DHT22;5715;48.234;14.320;2023-04-06T15:42:06;11.70;99.00
11320;DHT22;5715;48.234;14.320;2023-04-06T15:44:54;11.60;98.30
11320;DHT22;5715;48.234;14.320;2023-04-06T15:47:43;11.50;99.60
11320;DHT22;5715;48.234;14.320;2023-04-06T15:50:32;11.50;99.30
11320;DHT22;5715;48.234;14.320;2023-04-06T15:53:20;11.50;99.30
11320;DHT22;5715;48.234;14.320;2023-04-06T15:56:07;11.40;98.80
11320;DHT22;5715;48.234;14.320;2023-04-06T15:58:55;11.40;98.40
11320;DHT22;5715;48.234;14.320;2023-04-06T16:01:46;11.30;99.50
11320;DHT22;5715;48.234;14.320;2023-04-06T16:04:34;11.30;98.60
11320;DHT22;5715;48.234;14.320;2023-04-06T16:07:22;11.30;98.60
11320;DHT22;5715;48.234;14.320;2023-04-06T16:10:09;11.20;98.60
11320;DHT22;5715;48.234;14.320;2023-04-06T16:12:57;11.10;98.60
11320;DHT22;5715;48.234;14.320;2023-04-06T16:15:49;11.10;98.10
11320;DHT22;5715;48.234;14.320;2023-04-06T16:18:38;11.00;99.00
11320;DHT22;5715;48.234;14.320;2023-04-06T16:21:25;10.90;99.50
11320;DHT22;5715;48.234;14.320;2023-04-06T16:24:14;10.70;98.80
11320;DHT22;5715;48.234;14.320;2023-04-06T16:27:01;10.70;98.60
11320;DHT22;5715;48.234;14.320;2023-04-06T16:29:49;10.60;99.30
11320;DHT22;5715;48.234;14.320;2023-04-06T16:32:37;10.50;99.10
11320;DHT22;5715;48.234;14.320;2023-04-06T16:35:25;10.40;99.30
11320;DHT22;5715;48.234;14.320;2023-04-06T16:38:13;10.30;98.80
11320;DHT22;5715;48.234;14.320;2023-04-06T16:41:02;10.30;99.30
11320;DHT22;5715;48.234;14.320;2023-04-06T16:43:50;10.10;98.80
11320;DHT22;5715;48.234;14.320;2023-04-06T16:46:38;10.00;98.60
11320;DHT22;5715;48.234;14.320;2023-04-06T16:49:25;9.90;98.60
11320;DHT22;5715;48.234;14.320;2023-04-06T16:52:13;9.80;98.50
11320;DHT22;5715;48.234;14.320;2023-04-06T16:55:01;9.70;98.70
11320;DHT22;5715;48.234;14.320;2023-04-06T16:57:49;9.70;99.00
11320;DHT22;5715;48.234;14.320;2023-04-06T17:00:36;9.60;98.50
11320;DHT22;5715;48.234;14.320;2023-04-06T17:03:24;9.40;98.80
11320;DHT22;5715;48.234;14.320;2023-04-06T17:06:15;9.40;99.20
11320;DHT22;5715;48.234;14.320;2023-04-06T17:09:04;9.30;99.10
11320;DHT22;5715;48.234;14.320;2023-04-06T17:11:51;9.20;98.80
11320;DHT22;5715;48.234;14.320;2023-04-06T17:14:39;9.10;99.20
11320;DHT22;5715;48.234;14.320;2023-04-06T17:17:27;9.00;99.20
11320;DHT22;5715;48.234;14.320;2023-04-06T17:20:15;8.90;99.30
11320;DHT22;5715;48.234;14.320;2023-04-06T17:23:02;8.80;98.90
11320;DHT22;5715;48.234;14.320;2023-04-06T17:25:51;8.80;99.00
11320;DHT22;5715;48.234;14.320;2023-04-06T17:28:43;8.70;99.30
11320;DHT22;5715;48.234;14.320;2023-04-06T17:31:31;8.60;99.40
11320;DHT22;5715;48.234;14.320;2023-04-06T17:34:19;8.50;99.20
11320;DHT22;5715;48.234;14.320;2023-04-06T17:37:06;8.30;99.60
11320;DHT22;5715;48.234;14.320;2023-04-06T17:39:55;8.10;99.50
11320;DHT22;5715;48.234;14.320;2023-04-06T17:42:43;8.00;99.90
11320;DHT22;5715;48.234;14.320;2023-04-06T17:45:31;7.80;99.50
11320;DHT22;5715;48.234;14.320;2023-04-06T17:48:19;7.60;99.90
11320;DHT22;5715;48.234;14.320;2023-04-06T17:51:06;7.50;99.90
11320;DHT22;5715;48.234;14.320;2023-04-06T17:53:54;7.40;99.90
11320;DHT22;5715;48.234;14.320;2023-04-06T17:56:44;7.20;99.90
11320;DHT22;5715;48.234;14.320;2023-04-06T17:59:35;7.00;99.90
11320;DHT22;5715;48.234;14.320;2023-04-06T18:02:22;6.80;99.90